Database: COMPET-N - COOP - 3PL - 4PL - CNDOOM

WAD: Doom | Doom 2 | TNT | Plutonia | AV | HR | Scythe | MM | MM2 | Requiem | CE
Category: speed | nmare | max | nm100s | tyson | pacifist | fast | respawn | nomo | misc | built | all
Highscore: ALL | IWAD | PWAD | Country | Continent

Remove: wad | map | category | player | all
MapPlayerTimeDateFilenameCommentsDL
MAP01: The GatewayJim Leonard36.002004-04-13rq01-036.zip - 579
MAP01: EntrywayJim Leonard39.002006-03-14lv01-039.zip - 612
MAP26: ExcoriationJim Leonard41.002004-04-15rq26-041.zip - 261
MAP01: System ControlJim Leonard49.002005-01-17ev01-049.zip - 476
MAP30: The Gateway of HellJim Leonard59.002007-03-03pl30-059.zip - 383
MAP02: SacrificiumJim Leonard1:04.002004-04-14rq02-104.zip - 289
E3M1: Hell KeepJim Leonard1:07.002006-03-15e3m1-107.zip - 332
MAP30: NevermoreJim Leonard1:22.002002-06-23rq30-122.zip - 223
E4M4: Unruly EvilJim Leonard1:34.002006-03-18u4m4-134.zip - 422
MAP07: CaughtyardJim Leonard1:38.002006-01-28pl07-138.zip - 374
E3M7: Gate To LimboJim Leonard2:01.002006-03-16e3m7-201.zip - 401
MAP01: CongoJim Leonard2:11.002005-07-02pl01-211.zip - 618
MAP02: Well of SoulsJim Leonard2:22.002005-07-02pl02-222.zip - 277
MAP02: The BridgeJim Leonard2:31.002006-01-03mm02-231.zip - 270
MAP08: And the Dead Shall RiseJim Leonard2:33.002005-10-29mm08-233.zip - 226
MAP03: Power ControlJim Leonard2:36.002005-02-04ev03-236.zip - 375
MAP11: HuntedJim Leonard2:50.002006-06-13pl11-250.zip - 255
MAP11: Rats in the WallsJim Leonard2:57.002001-11-15rq11-257.zip - 268
MAP02: Human BBQJim Leonard3:10.002005-02-02ev02-310.zip - 398
MAP06: Open SeasonJim Leonard3:16.002005-02-07ev06-316.zip - 413
MAP05: HangerJim Leonard3:18.002005-02-06ev05-318.zip - 407
E2M2: Containment AreaJim Leonard3:26.002003-06-18e2m2-326.zip - 264
MAP05: HangerJim Leonard3:26.002005-01-20ev05-326.zip - 287
E2M2: Containment AreaJim Leonard3:31.002003-06-17e2m2-331.zip - 300
MAP07: Hells GiftJim Leonard3:39.002005-12-04rq07-339.zip - 331
MAP10: The Black GateJim Leonard3:44.002002-12-21rq10-344.zip - 239
E2M7: Spawning VatsJim Leonard3:48.002002-09-19e2m7-348.zip - 284
MAP05: Core InfectionJim Leonard3:48.002002-01-04hr05-348.zip - 252
MAP03: AztecJim Leonard3:51.002005-07-02pl03-351.zip - 400
MAP10: The Black GateJim Leonard3:55.002001-11-14rq10-355.zip - 228
MAP12: The FactoryJim Leonard3:59.002006-02-07lv12-359.zip - 300
MAP09: AbattoireJim Leonard4:03.002006-06-19pl09-403.zip - 373
MAP10: The MansionJim Leonard4:05.002006-01-03mm10-405.zip - 259
MAP04: FireworksJim Leonard4:07.002002-07-10rq04-407.zip - 369
E2M4: Deimos LabJim Leonard4:11.002006-03-16e2m4-411.zip - 436
E2M6: Halls Of The DamnedJim Leonard4:13.002003-05-22e2m6-413.zip - 333
MAP31S: Cyberden Secret ExitJim Leonard4:19.002006-06-10pl31-419.zip - 386
MAP04: SeclusionJim Leonard4:19.002006-04-30av04-419.zip - 393
MAP11: Storage FacilityJim Leonard4:22.002002-10-11ev11-422.zip - 287
MAP03: ...And Hell BeneathJim Leonard4:23.342018-12-29m203-423.zip - 263
MAP04: FireworksJim Leonard4:25.002001-08-31rq04-425.zip - 291
E2M4: Deimos LabJim Leonard4:28.002003-05-26e2m4-428.zip - 302
MAP16: Deepest ReachesJim Leonard4:32.002005-02-08ev16-432.zip - 378
E2M6: Halls Of The DamnedJim Leonard4:33.002002-09-18e2m6-433.zip - 319
E2M5: Command CenterJim Leonard4:38.002003-05-26e2m5-438.zip - 278
E2M5: Command CenterJim Leonard4:43.002002-09-18e2m5-443.zip - 283
E2M6: Halls Of The DamnedJim Leonard4:44.002002-04-23e2m6-444.zip - 281
MAP28: Fetals RemainsJim Leonard4:49.002002-07-11rq28-449.zip - 244
MAP05: Hells KitchenJim Leonard4:52.002005-07-18mm05-452.zip - 374
MAP18: Base of ThornJim Leonard4:53.002004-06-19rq18-453.zip - 228
MAP12: KineticsJim Leonard4:57.002007-01-01mm12-457.zip - 364
MAP24: The ChasmJim Leonard5:00.002006-02-05lv24-500.zip - 288
MAP14: Steel WorksJim Leonard5:01.002005-02-05ev14-501.zip - 367
MAP19: The CitadelJim Leonard5:05.002006-02-04lv19-505.zip - 438
MAP07: FrustrationJim Leonard5:09.572018-12-05m207-509.zip - 233
MAP03: ...And Hell BeneathJim Leonard5:10.002003-05-10m203-510.zip - 270
MAP16: The NephilimJim Leonard5:10.002009-12-27m216-510.zip - 242
MAP16: Deepest ReachesJim Leonard5:11.002003-03-02ev16-511.zip - 297
MAP08: MetalJim Leonard5:12.002005-02-04ev08-512.zip - 400
MAP14: Steel WorksJim Leonard5:17.002003-03-02ev14-517.zip - 294
MAP06: The PowerstationJim Leonard5:17.002005-07-17mm06-517.zip - 338
MAP03: Poison ProcessingJim Leonard5:20.002002-07-16rq03-520.zip - 409
MAP19: Shipping/RespawningJim Leonard5:22.002005-02-10ev19-522.zip - 374
MAP19: Skinny PuppyJim Leonard5:27.002002-07-12rq19-527.zip - 322
MAP03: Poison ProcessingJim Leonard5:41.002001-09-21rq03-541.zip - 270
MAP04: The StandJim Leonard5:42.002005-07-13mm04-542.zip - 401
MAP14: The PortalJim Leonard5:48.002006-12-10rq14-548.zip - 320
MAP09: StrongholdJim Leonard5:50.002005-02-05ev09-550.zip - 382
E2M9: DissensionJim Leonard5:51.002002-04-24cl29-551.zip - 249
E2M8: Evil RefineryJim Leonard5:59.002002-04-25cl28-559.zip - 239
MAP07: Not That SimpleJim Leonard5:59.002005-12-31mm07-559.zip - 407
MAP04: WormholeJim Leonard6:07.002005-02-06ev04-607.zip - 401
MAP14: Steel WorksJim Leonard6:07.002002-08-04ev14-607.zip - 298
MAP14: The PortalJim Leonard6:14.002002-06-22rq14-614.zip - 233
MAP31: PharaohJim Leonard6:17.002006-05-25ev31-617.zip - 408
MAP09: Deep Down BelowJim Leonard6:20.002002-07-02rq09-620.zip - 248
MAP05: Rites of PassageJim Leonard6:21.002006-08-29m205-621.zip - 261
MAP04: RatamahattaJim Leonard6:27.002003-05-12m204-627.zip - 380
MAP24: Procrustes ChambersJim Leonard6:28.002002-07-08rq24-628.zip - 218
E2M4: The Evil BaseJim Leonard6:32.002002-04-24cl24-632.zip - 309
MAP23: HatredJim Leonard6:33.002006-12-17rq23-633.zip - 365
MAP13: Town of the DeadJim Leonard6:53.002002-07-07rq13-653.zip - 328
MAP16: Deepest ReachesJim Leonard6:55.002002-01-19ev16-655.zip - 310
MAP29: Odyssey of NoisesJim Leonard7:15.002006-06-18pl29-715.zip - 372
MAP16: Escape from ChaosJim Leonard7:21.002002-07-07rq16-721.zip - 342
MAP17: Dens of IniquityJim Leonard7:50.002006-12-11rq17-750.zip - 345
MAP23: Blood SacrificeJim Leonard7:57.002006-05-21av23-757.zip - 285
MAP06: nataS ot etubirTJim Leonard8:10.002005-08-16rq06-810.zip - 333
MAP09: High-Tech GraveJim Leonard8:29.002006-01-02mm09-829.zip - 379
MAP21: Den of the SkullJim Leonard8:38.002002-07-10rq21-838.zip - 346
MAP18: MillJim Leonard8:39.002005-02-12ev18-839.zip - 376
MAP05: The CanyonJim Leonard8:44.002001-11-13rq05-844.zip - 368
MAP12: Militant ReprisalJim Leonard9:13.002002-07-01rq12-913.zip - 399
MAP08: The ReactorJim Leonard9:17.002001-11-14rq08-917.zip - 367
MAP06: TrappedJim Leonard9:24.002003-05-11m206-924.zip - 252
MAP20: Central ProcessingJim Leonard9:54.002005-08-15ev20-954.zip - 395
MAP09: KnockoutJim Leonard10:18.002002-01-06hr091018.zip - 239
MAP15: Last ResortJim Leonard10:58.002002-07-14rq151058.zip - 340
MAP09: Sabbath SewerJim Leonard11:35.002006-12-09m2091135.zip - 363
MAP21: Administration CenterJim Leonard12:43.002005-08-15ev211243.zip - 289
MAP14: City in the CloudsJim Leonard17:29.002005-10-06hr141729.zip - 239
MAP20: Misri HalekJim Leonard19:51.002006-05-03av201951.zip - 242
EP1: Requiem Episode 1 (MAP01 - MAP10)Jim Leonard59:25.002005-10-275925rq01.zip - 307
Remove: wad | map | category | player | all